createdAt,value
2018-12-18T00:00:36.883Z,73.17
2018-12-18T00:03:04.491Z,68.23
2018-12-18T00:05:35.136Z,62.03
2018-12-18T00:08:03.015Z,62.20
2018-12-18T00:10:36.296Z,63.33
2018-12-18T00:13:03.838Z,64.03
2018-12-18T00:15:31.383Z,65.97
2018-12-18T00:17:58.971Z,57.10
2018-12-18T00:20:26.517Z,59.20
2018-12-18T00:22:54.289Z,50.67
2018-12-18T00:25:21.971Z,49.27
2018-12-18T00:27:49.570Z,59.47
2018-12-18T00:30:17.148Z,61.70
2018-12-18T00:32:45.186Z,51.37
2018-12-18T00:35:12.824Z,47.30
2018-12-18T00:37:40.442Z,45.73
2018-12-18T00:40:08.305Z,49.03
2018-12-18T00:42:35.853Z,46.60
2018-12-18T00:45:03.954Z,45.03
2018-12-18T00:47:31.546Z,38.70
2018-12-18T00:49:59.096Z,38.10
2018-12-18T00:52:26.809Z,37.33
2018-12-18T00:54:54.393Z,37.80
2018-12-18T00:57:21.931Z,36.87
2018-12-18T00:59:49.465Z,33.63
2018-12-18T01:02:17.046Z,33.90
2018-12-18T01:04:45.592Z,35.47
2018-12-18T01:07:14.342Z,36.03
2018-12-18T01:09:42.367Z,43.00
2018-12-18T01:12:09.903Z,41.40
2018-12-18T01:14:37.593Z,43.33
2018-12-18T01:17:05.346Z,38.93
2018-12-18T01:19:32.918Z,41.43
2018-12-18T01:22:00.457Z,40.17
2018-12-18T01:24:28.049Z,35.03
2018-12-18T01:26:55.591Z,38.07
2018-12-18T01:29:23.127Z,38.67
2018-12-18T01:31:50.713Z,32.00
2018-12-18T01:34:18.581Z,31.10
2018-12-18T01:36:46.387Z,34.97
2018-12-18T01:39:13.968Z,34.07
2018-12-18T01:41:41.914Z,29.07
2018-12-18T01:44:09.454Z,29.30
2018-12-18T01:46:37.265Z,30.23
2018-12-18T01:49:04.901Z,35.40
2018-12-18T01:51:32.542Z,34.30
2018-12-18T01:54:00.450Z,38.57
2018-12-18T01:56:28.261Z,37.30
2018-12-18T01:58:55.806Z,39.40
2018-12-18T02:01:23.431Z,37.70
2018-12-18T02:03:50.982Z,35.67
2018-12-18T02:06:18.786Z,30.53
2018-12-18T02:08:46.366Z,31.30
2018-12-18T02:11:14.018Z,34.77
2018-12-18T02:13:41.886Z,35.97
2018-12-18T02:16:10.132Z,33.13
2018-12-18T02:18:37.662Z,36.20
2018-12-18T02:21:05.255Z,33.27
2018-12-18T02:23:32.835Z,29.93
2018-12-18T02:26:00.378Z,27.40
2018-12-18T02:28:27.926Z,24.77
2018-12-18T02:30:55.494Z,23.30
2018-12-18T02:33:23.033Z,23.67
2018-12-18T02:35:50.832Z,31.93
2018-12-18T02:38:18.414Z,36.57
2018-12-18T02:40:45.975Z,27.17
2018-12-18T02:43:13.514Z,30.13
2018-12-18T02:45:41.089Z,28.17
2018-12-18T02:48:08.751Z,25.00
2018-12-18T02:50:36.292Z,16.87
2018-12-18T02:53:03.872Z,16.10
2018-12-18T02:55:31.408Z,18.33
2018-12-18T02:57:58.952Z,17.93
2018-12-18T03:00:26.538Z,23.63
2018-12-18T03:02:54.103Z,24.43
2018-12-18T03:05:21.639Z,25.40
2018-12-18T03:07:49.402Z,25.57
2018-12-18T03:10:16.968Z,21.80
2018-12-18T03:12:45.064Z,23.67
2018-12-18T03:15:12.868Z,22.70
2018-12-18T03:17:40.627Z,22.97
2018-12-18T03:20:08.173Z,23.03
2018-12-18T03:22:35.763Z,23.00
2018-12-18T03:25:03.670Z,24.00
2018-12-18T03:27:31.215Z,24.40
2018-12-18T03:29:58.799Z,21.57
2018-12-18T03:32:27.156Z,19.07
2018-12-18T03:34:54.867Z,18.50
2018-12-18T03:37:22.456Z,19.00
2018-12-18T03:39:49.995Z,18.10
2018-12-18T03:42:17.535Z,18.77
2018-12-18T03:44:45.111Z,15.00
2018-12-18T03:47:12.658Z,18.97
2018-12-18T03:49:40.253Z,19.07
2018-12-18T03:52:07.839Z,19.20
2018-12-18T03:54:35.382Z,17.43
2018-12-18T03:57:02.918Z,16.97
2018-12-18T03:59:30.496Z,17.17
2018-12-18T04:01:58.034Z,16.90
2018-12-18T04:04:25.578Z,16.20
2018-12-18T04:06:53.461Z,18.00
2018-12-18T04:09:21.141Z,19.47
2018-12-18T04:14:52.673Z,19.40
2018-12-18T04:17:20.410Z,21.27
2018-12-18T04:19:48.417Z,22.67
2018-12-18T04:22:16.065Z,23.47
2018-12-18T04:24:43.642Z,22.80
2018-12-18T04:27:11.187Z,22.17
2018-12-18T04:29:38.755Z,23.93
2018-12-18T04:32:06.334Z,22.10
2018-12-18T04:34:33.947Z,19.17
2018-12-18T04:37:01.492Z,17.87
2018-12-18T04:39:29.266Z,20.57
2018-12-18T04:41:56.817Z,28.07
2018-12-18T04:44:24.411Z,29.53
2018-12-18T04:46:51.999Z,28.53
2018-12-18T04:49:19.539Z,29.93
2018-12-18T04:51:47.075Z,29.57
2018-12-18T04:54:14.682Z,28.57
2018-12-18T04:56:42.302Z,26.53
2018-12-18T04:59:09.848Z,28.20
2018-12-18T05:01:37.447Z,31.20
2018-12-18T05:04:04.986Z,31.10
2018-12-18T05:06:32.539Z,32.43
2018-12-18T05:09:00.125Z,35.90
2018-12-18T05:11:27.738Z,35.73
2018-12-18T05:13:55.303Z,36.73
2018-12-18T05:16:23.031Z,42.47
2018-12-18T05:18:50.840Z,41.97
2018-12-18T05:21:18.706Z,41.57
2018-12-18T05:23:46.571Z,42.30
2018-12-18T05:26:14.110Z,43.67
2018-12-18T05:28:41.867Z,40.83
2018-12-18T05:31:09.484Z,34.87
2018-12-18T05:33:37.049Z,36.07
2018-12-18T05:36:04.602Z,39.93
2018-12-18T05:38:32.206Z,42.63
2018-12-18T05:41:00.000Z,40.00
2018-12-18T05:43:28.577Z,44.17
2018-12-18T05:45:56.410Z,41.23
2018-12-18T05:48:23.953Z,45.23
2018-12-18T05:50:51.747Z,44.37
2018-12-18T05:53:19.400Z,49.70
2018-12-18T05:55:47.190Z,52.17
2018-12-18T05:58:14.805Z,53.07
2018-12-18T06:00:42.427Z,54.50
2018-12-18T06:03:09.973Z,54.47
2018-12-18T06:05:37.523Z,60.53
2018-12-18T06:08:05.266Z,56.43
2018-12-18T06:10:32.910Z,56.13
2018-12-18T06:13:00.471Z,57.93
2018-12-18T06:15:28.091Z,66.10
2018-12-18T06:17:55.931Z,73.50
2018-12-18T06:20:23.494Z,71.97
2018-12-18T06:22:51.325Z,103.63
2018-12-18T06:25:18.916Z,96.13
2018-12-18T06:27:46.483Z,97.10
2018-12-18T06:30:14.842Z,106.60
2018-12-18T06:32:42.386Z,71.53
2018-12-18T06:35:10.469Z,76.90
2018-12-18T06:37:38.461Z,85.40
2018-12-18T06:40:06.621Z,91.70
2018-12-18T06:42:34.351Z,213.90
2018-12-18T06:45:01.926Z,149.00
2018-12-18T06:47:29.484Z,109.10
2018-12-18T06:49:57.032Z,125.13
2018-12-18T06:52:24.698Z,117.13
2018-12-18T06:54:52.453Z,80.87
2018-12-18T06:57:20.006Z,105.33
2018-12-18T06:59:47.997Z,105.73
2018-12-18T07:02:15.549Z,99.90
2018-12-18T07:04:43.161Z,95.53
2018-12-18T07:07:10.828Z,100.53
2018-12-18T07:09:38.371Z,103.50
2018-12-18T07:12:05.975Z,104.03
2018-12-18T07:14:33.612Z,63.00
2018-12-18T07:17:01.418Z,64.13
2018-12-18T07:19:29.090Z,74.13
2018-12-18T07:21:56.664Z,77.13
2018-12-18T07:24:24.386Z,81.43
2018-12-18T07:26:52.031Z,88.77
2018-12-18T07:29:19.624Z,90.77
2018-12-18T07:31:47.424Z,85.43
2018-12-18T07:34:14.975Z,90.73
2018-12-18T07:36:42.622Z,95.40
2018-12-18T07:39:10.267Z,90.37
2018-12-18T07:41:37.818Z,97.20
2018-12-18T07:44:06.762Z,100.07
2018-12-18T07:46:34.442Z,119.50
2018-12-18T07:49:01.988Z,94.00
2018-12-18T07:51:29.882Z,106.37
2018-12-18T07:53:57.436Z,114.70
2018-12-18T07:56:25.218Z,113.27
2018-12-18T07:58:52.843Z,112.27
2018-12-18T08:01:20.399Z,113.77
2018-12-18T08:03:47.975Z,122.47
2018-12-18T08:06:15.559Z,126.13
2018-12-18T08:08:43.339Z,140.27
2018-12-18T08:11:11.188Z,111.50
2018-12-18T08:13:38.778Z,119.27
2018-12-18T08:16:06.488Z,110.90
2018-12-18T08:18:34.037Z,82.43
2018-12-18T08:21:02.059Z,78.70
2018-12-18T08:23:29.668Z,96.30
2018-12-18T08:25:57.211Z,92.70
2018-12-18T08:28:25.067Z,83.00
2018-12-18T08:30:52.645Z,114.67
2018-12-18T08:33:20.206Z,91.17
2018-12-18T08:35:47.833Z,84.13
2018-12-18T08:38:15.615Z,119.43
2018-12-18T08:40:43.162Z,87.20
2018-12-18T08:43:10.973Z,89.27
2018-12-18T08:45:38.519Z,84.63
2018-12-18T08:48:06.070Z,47.60
2018-12-18T08:50:33.656Z,51.93
2018-12-18T08:53:01.395Z,63.67
2018-12-18T08:55:29.280Z,63.83
2018-12-18T08:57:57.219Z,59.63
2018-12-18T09:00:24.762Z,78.53
2018-12-18T09:02:52.315Z,101.20
2018-12-18T09:05:20.230Z,86.63
2018-12-18T09:07:48.023Z,56.10
2018-12-18T09:10:15.896Z,49.90
2018-12-18T09:12:43.757Z,58.33
2018-12-18T09:15:17.066Z,67.57
2018-12-18T09:17:46.744Z,109.97
2018-12-18T09:20:14.826Z,110.57
2018-12-18T09:22:42.674Z,105.57
2018-12-18T09:25:10.260Z,95.97
2018-12-18T09:27:37.903Z,97.23
2018-12-18T09:30:08.552Z,141.53
2018-12-18T09:32:36.350Z,114.40
2018-12-18T09:35:04.795Z,92.77
2018-12-18T09:37:32.335Z,88.13
2018-12-18T09:39:59.966Z,74.27
2018-12-18T09:42:33.441Z,62.03
2018-12-18T09:45:01.380Z,41.70
2018-12-18T09:47:29.169Z,45.40
2018-12-18T09:49:56.716Z,45.73
2018-12-18T09:52:24.555Z,46.97
2018-12-18T09:54:52.254Z,44.00
2018-12-18T09:57:25.561Z,37.77
2018-12-18T09:59:53.347Z,88.13
2018-12-18T10:02:21.079Z,57.17
2018-12-18T10:04:48.650Z,92.07
2018-12-18T10:07:16.395Z,148.30
2018-12-18T10:09:44.065Z,170.70
2018-12-18T10:12:11.818Z,129.07
2018-12-18T10:14:39.583Z,102.77
2018-12-18T10:17:07.177Z,137.97
2018-12-18T10:19:34.826Z,165.40
2018-12-18T10:22:02.386Z,154.10
2018-12-18T10:24:30.260Z,124.20
2018-12-18T10:26:58.023Z,55.83
2018-12-18T10:29:25.602Z,51.97
2018-12-18T10:31:53.203Z,125.80
2018-12-18T10:34:20.950Z,173.03
2018-12-18T10:36:48.487Z,36.60
2018-12-18T10:39:16.420Z,35.47
2018-12-18T10:41:44.084Z,34.03
2018-12-18T10:44:11.945Z,31.87
2018-12-18T10:46:39.492Z,27.23
2018-12-18T10:49:07.087Z,20.73
2018-12-18T10:51:34.630Z,32.70
2018-12-18T10:54:02.170Z,33.80
2018-12-18T10:56:29.743Z,33.97
2018-12-18T10:58:57.535Z,37.53
2018-12-18T11:01:31.328Z,27.47
2018-12-18T11:03:59.168Z,26.57
2018-12-18T11:06:27.141Z,33.50
2018-12-18T11:08:54.902Z,41.87
2018-12-18T11:11:22.487Z,33.30
2018-12-18T11:13:51.046Z,31.10
2018-12-18T11:16:19.152Z,31.00
2018-12-18T11:18:47.009Z,30.97
2018-12-18T11:21:14.549Z,36.83
2018-12-18T11:23:42.311Z,46.87
2018-12-18T11:26:09.957Z,49.33
2018-12-18T11:28:37.502Z,47.17
2018-12-18T11:31:05.323Z,46.27
2018-12-18T11:33:32.872Z,45.20
2018-12-18T11:36:00.423Z,44.33
2018-12-18T11:38:27.995Z,44.83
2018-12-18T11:40:55.922Z,43.00
2018-12-18T11:43:23.455Z,45.07
2018-12-18T11:45:51.512Z,42.30
2018-12-18T11:48:19.273Z,40.90
2018-12-18T11:50:46.811Z,41.43
2018-12-18T11:53:14.634Z,43.43
2018-12-18T11:55:42.527Z,42.63
2018-12-18T11:58:10.063Z,43.03
2018-12-18T12:00:38.560Z,44.33
2018-12-18T12:03:06.435Z,44.60
2018-12-18T12:05:34.201Z,49.17
2018-12-18T12:08:01.769Z,43.00
2018-12-18T12:10:29.330Z,45.17
2018-12-18T12:12:57.335Z,45.33
2018-12-18T12:15:25.110Z,47.67
2018-12-18T12:17:53.291Z,46.50
2018-12-18T12:20:20.966Z,46.47
2018-12-18T12:22:48.884Z,45.00
2018-12-18T12:25:16.655Z,48.83
2018-12-18T12:27:50.413Z,52.27
2018-12-18T12:30:18.213Z,43.77
2018-12-18T12:32:46.240Z,38.63
2018-12-18T12:35:14.029Z,39.63
2018-12-18T12:37:42.357Z,40.03
2018-12-18T12:40:10.098Z,42.63
2018-12-18T12:42:37.982Z,44.20
2018-12-18T12:45:06.417Z,40.27
2018-12-18T12:47:34.063Z,38.07
2018-12-18T12:50:02.562Z,40.67
2018-12-18T12:52:30.572Z,44.60
2018-12-18T12:54:58.176Z,42.23
2018-12-18T12:57:26.000Z,42.73
2018-12-18T12:59:54.245Z,40.77
2018-12-18T13:02:22.271Z,41.03
2018-12-18T13:04:49.990Z,41.23
2018-12-18T13:07:17.973Z,41.57
2018-12-18T13:09:45.660Z,39.73
2018-12-18T13:12:13.408Z,38.77
2018-12-18T13:14:41.202Z,39.30
2018-12-18T13:17:09.001Z,37.80
2018-12-18T13:19:36.907Z,40.90
2018-12-18T13:22:04.454Z,46.20
2018-12-18T13:24:32.002Z,40.70
2018-12-18T13:26:59.602Z,40.27
2018-12-18T13:29:27.940Z,39.00
2018-12-18T13:31:55.989Z,42.47
2018-12-18T13:34:23.578Z,51.13
2018-12-18T13:36:51.279Z,51.53
2018-12-18T13:39:19.605Z,61.83
2018-12-18T13:41:47.704Z,77.03
2018-12-18T13:44:15.255Z,83.83
2018-12-18T13:46:43.035Z,87.23
2018-12-18T13:49:10.930Z,88.50
2018-12-18T13:51:39.007Z,100.70
2018-12-18T13:54:07.199Z,113.53
2018-12-18T13:56:34.775Z,97.77
2018-12-18T13:59:02.352Z,99.07
2018-12-18T14:01:30.190Z,105.33
2018-12-18T14:03:58.307Z,124.13
2018-12-18T14:06:26.047Z,108.13
2018-12-18T14:08:54.188Z,113.23
2018-12-18T14:11:22.447Z,84.47
2018-12-18T14:13:50.365Z,108.87
2018-12-18T14:16:18.196Z,111.43
2018-12-18T14:18:46.681Z,101.57
2018-12-18T14:21:14.752Z,101.63
2018-12-18T14:23:42.442Z,93.93
2018-12-18T14:26:10.037Z,95.63
2018-12-18T14:28:37.744Z,94.97
2018-12-18T14:31:06.423Z,91.77
2018-12-18T14:33:34.904Z,102.23
2018-12-18T14:36:02.768Z,103.43
2018-12-18T14:38:30.862Z,99.57
2018-12-18T14:40:58.623Z,113.30
2018-12-18T14:43:26.676Z,116.27
2018-12-18T14:45:54.576Z,104.13
2018-12-18T14:48:24.152Z,102.47
2018-12-18T14:50:53.258Z,127.57
2018-12-18T14:53:20.978Z,134.83
2018-12-18T14:55:48.597Z,152.07
2018-12-18T14:58:16.138Z,149.73
2018-12-18T15:00:44.162Z,139.63
2018-12-18T15:03:11.736Z,117.90
2018-12-18T15:05:40.241Z,121.07
2018-12-18T15:08:09.013Z,119.73
2018-12-18T15:10:38.583Z,119.13
2018-12-18T15:13:08.581Z,110.63
2018-12-18T15:15:36.587Z,113.13
2018-12-18T15:18:05.650Z,113.53
2018-12-18T15:20:34.321Z,122.80
2018-12-18T15:23:03.274Z,138.10
2018-12-18T15:25:31.322Z,114.73
2018-12-18T15:27:59.326Z,118.30
2018-12-18T15:30:26.886Z,112.87
2018-12-18T15:32:54.933Z,122.73
2018-12-18T15:35:23.017Z,109.10
2018-12-18T15:37:50.790Z,90.90
2018-12-18T15:40:18.832Z,87.73
2018-12-18T15:42:46.606Z,128.13
2018-12-18T15:45:14.431Z,157.33
2018-12-18T15:47:42.139Z,175.30
2018-12-18T15:50:09.775Z,187.47
2018-12-18T15:52:37.858Z,246.03
2018-12-18T15:55:05.454Z,242.83
2018-12-18T15:57:33.003Z,254.40
2018-12-18T16:00:00.555Z,234.93
2018-12-18T16:02:28.611Z,229.33
2018-12-18T16:04:56.256Z,214.73
2018-12-18T16:07:24.288Z,221.80
2018-12-18T16:09:52.342Z,227.80
2018-12-18T16:12:19.943Z,253.60
2018-12-18T16:14:49.313Z,205.17
2018-12-18T16:17:17.331Z,243.57
2018-12-18T16:19:45.199Z,237.67
2018-12-18T16:22:12.746Z,225.90
2018-12-18T16:24:40.520Z,292.57
2018-12-18T16:27:09.000Z,240.03
2018-12-18T16:29:36.903Z,225.30
2018-12-18T16:32:04.483Z,211.20
2018-12-18T16:34:32.192Z,209.63
2018-12-18T16:37:00.185Z,207.93
2018-12-18T16:39:30.810Z,226.70
2018-12-18T16:41:58.358Z,238.47
2018-12-18T16:44:26.122Z,241.47
2018-12-18T16:46:53.871Z,255.73
2018-12-18T16:49:21.439Z,297.73
2018-12-18T16:51:49.168Z,286.23
2018-12-18T16:54:16.984Z,286.00
2018-12-18T16:56:44.939Z,295.20
2018-12-18T16:59:12.888Z,295.57
2018-12-18T17:01:40.813Z,279.27
2018-12-18T17:04:08.609Z,299.17
2018-12-18T17:06:36.484Z,292.97
2018-12-18T17:09:06.694Z,298.43
2018-12-18T17:11:35.695Z,335.03
2018-12-18T17:14:03.327Z,315.30
2018-12-18T17:16:31.096Z,305.00
2018-12-18T17:18:58.898Z,299.50
2018-12-18T17:21:26.474Z,294.17
2018-12-18T17:23:54.536Z,267.70
2018-12-18T17:26:22.544Z,263.70
2018-12-18T17:28:50.086Z,247.00
2018-12-18T17:31:17.681Z,229.97
2018-12-18T17:33:45.258Z,223.70
2018-12-18T17:36:13.078Z,248.47
2018-12-18T17:38:40.987Z,272.27
2018-12-18T17:41:09.092Z,322.67
2018-12-18T17:43:37.747Z,272.17
2018-12-18T17:46:05.813Z,282.07
2018-12-18T17:48:33.366Z,275.33
2018-12-18T17:51:01.327Z,278.07
2018-12-18T17:53:29.102Z,302.50
2018-12-18T17:55:56.651Z,286.93
2018-12-18T17:58:24.632Z,281.87
2018-12-18T18:00:52.251Z,275.13
2018-12-18T18:03:19.837Z,276.60
2018-12-18T18:05:48.331Z,256.23
2018-12-18T18:08:16.195Z,215.07
2018-12-18T18:10:43.739Z,195.77
2018-12-18T18:13:11.799Z,127.57
2018-12-18T18:15:40.200Z,136.03
2018-12-18T18:18:07.904Z,142.40
2018-12-18T18:20:35.725Z,152.00
2018-12-18T18:23:03.693Z,173.40
2018-12-18T18:25:31.495Z,163.83
2018-12-18T18:27:59.529Z,155.87
2018-12-18T18:30:27.887Z,163.03
2018-12-18T18:32:55.754Z,183.60
2018-12-18T18:35:23.442Z,161.30
2018-12-18T18:37:51.256Z,199.43
2018-12-18T18:40:20.010Z,188.23
2018-12-18T18:42:47.890Z,188.77
2018-12-18T18:45:15.467Z,187.10
2018-12-18T18:47:43.519Z,177.07
2018-12-18T18:50:11.795Z,156.47
2018-12-18T18:52:39.418Z,154.67
2018-12-18T18:55:08.070Z,145.70
2018-12-18T18:57:35.630Z,120.33
2018-12-18T19:00:04.032Z,94.70
2018-12-18T19:02:31.766Z,104.97
2018-12-18T19:04:59.557Z,111.87
2018-12-18T19:07:27.836Z,105.40
2018-12-18T19:09:55.844Z,107.37
2018-12-18T19:12:23.563Z,110.23
2018-12-18T19:14:51.178Z,110.03
2018-12-18T19:17:19.090Z,105.53
2018-12-18T19:19:46.887Z,112.47
2018-12-18T19:22:15.566Z,118.90
2018-12-18T19:24:43.436Z,117.17
2018-12-18T19:27:11.380Z,113.93
2018-12-18T19:29:39.403Z,115.10
2018-12-18T19:32:07.694Z,151.23
2018-12-18T19:34:35.991Z,189.47
2018-12-18T19:37:04.468Z,219.60
2018-12-18T19:39:34.515Z,190.10
2018-12-18T19:42:02.657Z,171.93
2018-12-18T19:44:31.502Z,197.77
2018-12-18T19:46:59.176Z,287.07
2018-12-18T19:49:26.924Z,207.10
2018-12-18T19:51:55.692Z,224.87
2018-12-18T19:54:23.853Z,216.47
2018-12-18T19:56:52.105Z,219.30
2018-12-18T19:59:19.767Z,245.00
2018-12-18T20:01:47.351Z,238.90
2018-12-18T20:04:15.126Z,234.80
2018-12-18T20:06:42.722Z,211.17
2018-12-18T20:09:10.459Z,187.10
2018-12-18T20:11:38.475Z,194.40
2018-12-18T20:14:06.287Z,200.17
2018-12-18T20:16:34.103Z,197.23
2018-12-18T20:19:02.278Z,192.67
2018-12-18T20:21:30.115Z,200.37
2018-12-18T20:23:57.905Z,184.03
2018-12-18T20:26:25.873Z,221.20
2018-12-18T20:28:53.534Z,226.83
2018-12-18T20:31:21.604Z,206.40
2018-12-18T20:33:49.376Z,242.30
2018-12-18T20:36:16.959Z,389.60
2018-12-18T20:38:44.525Z,302.13
2018-12-18T20:41:12.273Z,250.43
2018-12-18T20:43:40.319Z,209.33
2018-12-18T20:46:08.111Z,218.90
2018-12-18T20:48:35.829Z,244.43
2018-12-18T20:51:03.737Z,250.70
2018-12-18T20:53:31.296Z,221.30
2018-12-18T20:55:59.106Z,187.87
2018-12-18T20:58:26.876Z,223.87
2018-12-18T21:00:54.591Z,223.20
2018-12-18T21:03:22.423Z,244.47
2018-12-18T21:05:50.074Z,233.50
2018-12-18T21:08:23.164Z,212.97
2018-12-18T21:10:47.486Z,221.73
2018-12-18T21:13:20.946Z,212.53
2018-12-18T21:15:48.505Z,171.50
2018-12-18T21:18:16.057Z,170.97
2018-12-18T21:20:43.870Z,180.93
2018-12-18T21:23:11.436Z,185.80
2018-12-18T21:25:38.983Z,200.17
2018-12-18T21:28:06.709Z,184.97
2018-12-18T21:30:34.295Z,156.00
2018-12-18T21:33:13.115Z,123.43
2018-12-18T21:35:40.955Z,144.40
2018-12-18T21:38:08.523Z,172.07
2018-12-18T21:40:36.132Z,167.23
2018-12-18T21:43:03.732Z,145.70
2018-12-18T21:45:31.381Z,147.93
2018-12-18T21:47:59.184Z,149.10
2018-12-18T21:50:26.737Z,135.77
2018-12-18T21:52:54.285Z,122.13
2018-12-18T21:55:21.878Z,127.23
2018-12-18T21:57:49.424Z,135.03
2018-12-18T22:00:17.189Z,115.83
2018-12-18T22:02:45.142Z,124.80
2018-12-18T22:05:12.882Z,167.43
2018-12-18T22:07:40.454Z,148.73
2018-12-18T22:10:08.194Z,155.57
2018-12-18T22:12:36.351Z,139.20
2018-12-18T22:15:04.225Z,133.90
2018-12-18T22:17:32.039Z,126.97
2018-12-18T22:19:59.737Z,120.57
2018-12-18T22:22:27.461Z,113.77
2018-12-18T22:24:55.054Z,107.30
2018-12-18T22:27:22.602Z,109.00
2018-12-18T22:29:50.139Z,117.50
2018-12-18T22:32:17.869Z,110.30
2018-12-18T22:34:45.411Z,108.23
2018-12-18T22:37:14.397Z,111.87
2018-12-18T22:39:42.199Z,120.53
2018-12-18T22:42:09.816Z,103.27
2018-12-18T22:44:37.609Z,115.87
2018-12-18T22:47:05.194Z,106.10
2018-12-18T22:49:32.755Z,104.33
2018-12-18T22:52:00.421Z,112.87
2018-12-18T22:54:28.007Z,129.83
2018-12-18T22:56:55.554Z,113.67
2018-12-18T22:59:23.102Z,107.60
2018-12-18T23:01:51.018Z,106.80
2018-12-18T23:04:18.962Z,97.37
2018-12-18T23:06:46.609Z,95.00
2018-12-18T23:09:14.799Z,90.30
2018-12-18T23:11:42.342Z,91.27
2018-12-18T23:14:09.895Z,99.53
2018-12-18T23:16:37.666Z,106.77
2018-12-18T23:19:05.215Z,111.37
2018-12-18T23:21:32.754Z,111.57
2018-12-18T23:24:00.627Z,98.37
2018-12-18T23:26:28.172Z,96.03
2018-12-18T23:28:55.733Z,100.23
2018-12-18T23:31:23.335Z,107.67
2018-12-18T23:33:50.883Z,105.20
2018-12-18T23:36:18.426Z,116.90
2018-12-18T23:38:46.150Z,112.47
2018-12-18T23:41:13.747Z,107.87
2018-12-18T23:43:41.658Z,101.20
2018-12-18T23:46:09.362Z,83.43
2018-12-18T23:48:39.815Z,78.10
2018-12-18T23:51:06.687Z,66.70
2018-12-18T23:53:34.284Z,69.30
2018-12-18T23:56:01.839Z,74.07
2018-12-18T23:58:29.420Z,79.83
